createdAt,value
2019-04-05T00:00:37.168Z,96636.00
2019-04-05T00:05:44.010Z,96640.00
2019-04-05T00:10:51.793Z,96648.00
2019-04-05T00:15:58.122Z,96649.00
2019-04-05T00:21:04.493Z,96654.00
2019-04-05T00:26:12.019Z,96660.00
2019-04-05T00:31:19.453Z,96676.00
2019-04-05T00:36:25.304Z,96667.00
2019-04-05T00:41:33.054Z,96661.00
2019-04-05T00:46:39.930Z,96673.00
2019-04-05T00:51:46.201Z,96674.00
2019-04-05T00:56:54.109Z,96699.00
2019-04-05T01:02:13.115Z,96701.00
2019-04-05T01:07:19.459Z,96704.00
2019-04-05T01:12:27.624Z,96712.00
2019-04-05T01:17:34.832Z,96721.00
2019-04-05T01:22:44.620Z,96712.00
2019-04-05T01:27:51.579Z,96717.00
2019-04-05T01:32:58.052Z,96723.00
2019-04-05T01:38:04.481Z,96739.00
2019-04-05T01:43:11.085Z,96741.00
2019-04-05T01:48:17.329Z,96732.00
2019-04-05T01:53:23.601Z,96743.00
2019-04-05T01:58:30.277Z,96739.00
2019-04-05T02:03:35.978Z,96743.00
2019-04-05T02:08:42.482Z,96739.00
2019-04-05T02:13:49.080Z,96728.00
2019-04-05T02:18:55.635Z,96741.00
2019-04-05T02:24:02.438Z,96731.00
2019-04-05T02:29:09.099Z,96732.00
2019-04-05T02:34:15.700Z,96720.00
2019-04-05T02:39:21.403Z,96727.00
2019-04-05T02:44:29.532Z,96720.00
2019-04-05T02:49:38.955Z,96725.00
2019-04-05T02:54:47.093Z,96718.00
2019-04-05T02:59:54.668Z,96729.00
2019-04-05T03:05:01.518Z,96735.00
2019-04-05T03:10:08.275Z,96755.00
2019-04-05T03:15:15.219Z,96757.00
2019-04-05T03:20:21.210Z,96776.00
2019-04-05T03:25:27.675Z,96779.00
2019-04-05T03:30:33.455Z,96782.00
2019-04-05T03:35:39.977Z,96786.00
2019-04-05T03:40:47.454Z,96793.00
2019-04-05T03:45:53.990Z,96798.00
2019-04-05T03:51:00.820Z,96804.00
2019-04-05T03:56:07.680Z,96799.00
2019-04-05T04:01:15.614Z,96813.00
2019-04-05T04:06:22.961Z,96813.00
2019-04-05T04:11:29.934Z,96817.00
2019-04-05T04:16:37.271Z,96818.00
2019-04-05T04:22:05.351Z,96827.00
2019-04-05T04:27:12.495Z,96818.00
2019-04-05T04:32:19.807Z,96818.00
2019-04-05T04:37:26.838Z,96831.00
2019-04-05T04:42:33.426Z,96833.00
2019-04-05T04:47:41.424Z,96829.00
2019-04-05T04:52:48.398Z,96838.00
2019-04-05T04:57:54.506Z,96840.00
2019-04-05T05:03:01.592Z,96847.00
2019-04-05T05:08:08.288Z,96848.00
2019-04-05T05:13:14.491Z,96854.00
2019-04-05T05:18:20.728Z,96854.00
2019-04-05T05:23:27.724Z,96851.00
2019-04-05T05:28:33.653Z,96856.00
2019-04-05T05:33:42.059Z,96852.00
2019-04-05T05:38:50.299Z,96852.00
2019-04-05T05:43:57.142Z,96869.00
2019-04-05T05:49:05.445Z,96874.00
2019-04-05T05:54:11.939Z,96875.00
2019-04-05T05:59:18.936Z,96869.00
2019-04-05T06:04:24.694Z,96878.00
2019-04-05T06:09:30.367Z,96880.00
2019-04-05T06:14:37.458Z,96884.00
2019-04-05T06:19:44.074Z,96889.00
2019-04-05T06:24:50.897Z,96903.00
2019-04-05T06:29:58.499Z,96913.00
2019-04-05T06:35:07.682Z,96922.00
2019-04-05T06:40:15.787Z,96924.00
2019-04-05T06:45:22.327Z,96918.00
2019-04-05T06:50:30.149Z,96916.00
2019-04-05T06:55:49.264Z,96904.00
2019-04-05T07:00:57.507Z,96919.00
2019-04-05T07:06:05.538Z,96912.00
2019-04-05T07:11:12.243Z,96922.00
2019-04-05T07:16:21.098Z,96927.00
2019-04-05T07:21:27.701Z,96926.00
2019-04-05T07:26:33.461Z,96928.00
2019-04-05T07:31:38.999Z,96937.00
2019-04-05T07:36:45.666Z,96932.00
2019-04-05T07:41:53.162Z,96938.00
2019-04-05T07:46:59.564Z,96947.00
2019-04-05T07:52:05.957Z,96944.00
2019-04-05T07:57:12.620Z,96942.00
2019-04-05T08:02:19.956Z,96941.00
2019-04-05T08:07:30.726Z,96954.00
2019-04-05T08:12:40.239Z,96959.00
2019-04-05T08:17:46.906Z,96959.00
2019-04-05T08:22:54.418Z,96963.00
2019-04-05T08:28:01.060Z,96964.00
2019-04-05T08:33:07.663Z,96968.00
2019-04-05T08:38:13.918Z,96962.00
2019-04-05T08:43:20.521Z,96976.00
2019-04-05T08:48:27.198Z,96969.00
2019-04-05T08:53:33.058Z,96960.00
2019-04-05T08:58:40.586Z,96953.00
2019-04-05T09:03:46.929Z,96953.00
2019-04-05T09:08:53.218Z,96957.00
2019-04-05T09:13:59.939Z,96950.00
2019-04-05T09:19:06.653Z,96943.00
2019-04-05T09:24:13.519Z,96949.00
2019-04-05T09:29:19.323Z,96946.00
2019-04-05T09:34:25.136Z,96955.00
2019-04-05T09:39:30.929Z,96948.00
2019-04-05T09:44:38.953Z,96948.00
2019-04-05T09:49:45.651Z,96955.00
2019-04-05T09:54:52.393Z,96960.00
2019-04-05T10:00:00.233Z,96948.00
2019-04-05T10:05:08.185Z,96940.00
2019-04-05T10:10:15.127Z,96940.00
2019-04-05T10:15:22.141Z,96951.00
2019-04-05T10:20:47.395Z,96945.00
2019-04-05T10:25:53.856Z,96951.00
2019-04-05T10:31:00.245Z,96951.00
2019-04-05T10:36:07.927Z,96949.00
2019-04-05T10:41:16.413Z,96953.00
2019-04-05T10:46:22.530Z,96960.00
2019-04-05T10:51:28.669Z,96967.00
2019-04-05T10:56:35.465Z,96956.00
2019-04-05T11:01:42.518Z,96962.00
2019-04-05T11:06:50.461Z,96968.00
2019-04-05T11:11:56.983Z,96961.00
2019-04-05T11:17:05.124Z,96963.00
2019-04-05T11:22:13.304Z,96966.00
2019-04-05T11:27:20.258Z,96959.00
2019-04-05T11:32:27.971Z,96970.00
2019-04-05T11:37:34.139Z,96969.00
2019-04-05T11:42:43.230Z,96965.00
2019-04-05T11:47:53.629Z,96979.00
2019-04-05T11:53:00.649Z,96965.00
2019-04-05T11:58:07.927Z,96961.00
2019-04-05T12:03:16.238Z,96966.00
2019-04-05T12:08:24.573Z,96965.00
2019-04-05T12:13:32.945Z,96968.00
2019-04-05T12:18:38.754Z,96965.00
2019-04-05T12:23:45.194Z,96969.00
2019-04-05T12:28:51.985Z,96966.00
2019-04-05T12:33:59.868Z,96957.00
2019-04-05T12:39:08.568Z,96952.00
2019-04-05T12:44:16.502Z,96945.00
2019-04-05T12:49:22.527Z,96934.00
2019-04-05T12:54:28.499Z,96953.00
2019-04-05T12:59:34.355Z,96943.00
2019-04-05T13:04:40.853Z,96941.00
2019-04-05T13:09:47.345Z,96947.00
2019-04-05T13:14:59.692Z,96945.00
2019-04-05T13:20:02.230Z,96951.00
2019-04-05T13:25:11.081Z,96943.00
2019-04-05T13:30:19.273Z,96941.00
2019-04-05T13:35:26.163Z,96935.00
2019-04-05T13:40:32.184Z,96950.00
2019-04-05T13:45:40.300Z,96950.00
2019-04-05T13:50:48.123Z,96939.00
2019-04-05T13:55:54.942Z,96940.00
2019-04-05T14:01:01.686Z,96932.00
2019-04-05T14:06:10.625Z,96947.00
2019-04-05T14:11:16.226Z,96937.00
2019-04-05T14:16:23.619Z,96933.00
2019-04-05T14:21:39.793Z,96936.00
2019-04-05T14:26:37.605Z,96942.00
2019-04-05T14:31:45.946Z,96945.00
2019-04-05T14:36:53.025Z,96940.00
2019-04-05T14:42:09.452Z,96946.00
2019-04-05T14:47:11.007Z,96942.00
2019-04-05T14:52:18.652Z,96944.00
2019-04-05T14:57:26.653Z,96942.00
2019-04-05T15:02:34.077Z,96933.00
2019-04-05T15:07:40.834Z,96938.00
2019-04-05T15:12:47.745Z,96936.00
2019-04-05T15:17:55.918Z,96928.00
2019-04-05T15:23:03.524Z,96935.00
2019-04-05T15:28:12.150Z,96928.00
2019-04-05T15:33:20.167Z,96923.00
2019-04-05T15:38:31.319Z,96911.00
2019-04-05T15:43:35.219Z,96928.00
2019-04-05T15:48:42.039Z,96933.00
2019-04-05T15:53:50.228Z,96930.00
2019-04-05T15:58:58.531Z,96932.00
2019-04-05T16:04:05.264Z,96934.00
2019-04-05T16:09:14.422Z,96933.00
2019-04-05T16:14:21.544Z,96934.00
2019-04-05T16:19:27.401Z,96942.00
2019-04-05T16:24:33.347Z,96933.00
2019-04-05T16:29:41.677Z,96946.00
2019-04-05T16:34:50.134Z,96946.00
2019-04-05T16:39:57.876Z,96949.00
2019-04-05T16:45:11.348Z,96948.00
2019-04-05T16:50:21.377Z,96951.00
2019-04-05T16:55:28.334Z,96948.00
2019-04-05T17:00:34.292Z,96942.00
2019-04-05T17:05:42.659Z,96945.00
2019-04-05T17:10:49.510Z,96941.00
2019-04-05T17:15:57.448Z,96938.00
2019-04-05T17:21:05.356Z,96947.00
2019-04-05T17:26:12.027Z,96956.00
2019-04-05T17:31:20.662Z,96955.00
2019-04-05T17:36:27.983Z,96949.00
2019-04-05T17:41:37.268Z,96953.00
2019-04-05T17:46:45.344Z,96955.00
2019-04-05T17:51:53.512Z,96969.00
2019-04-05T17:57:01.927Z,96975.00
2019-04-05T18:02:10.780Z,96981.00
2019-04-05T18:07:19.339Z,96975.00
2019-04-05T18:12:26.145Z,96972.00
2019-04-05T18:17:34.921Z,96975.00
2019-04-05T18:22:42.987Z,96984.00
2019-04-05T18:27:50.732Z,96972.00
2019-04-05T18:32:58.849Z,96973.00
2019-04-05T18:38:06.166Z,96974.00
2019-04-05T18:43:13.269Z,96981.00
2019-04-05T18:48:20.507Z,96987.00
2019-04-05T18:53:37.471Z,96981.00
2019-04-05T18:58:37.261Z,96983.00
2019-04-05T19:03:46.355Z,96986.00
2019-04-05T19:08:54.906Z,96989.00
2019-04-05T19:14:03.472Z,96984.00
2019-04-05T19:19:13.223Z,96991.00
2019-04-05T19:24:20.356Z,96988.00
2019-04-05T19:29:28.999Z,96978.00
2019-04-05T19:50:06.663Z,97005.00
2019-04-05T19:55:14.983Z,96996.00
2019-04-05T20:00:22.153Z,97003.00
2019-04-05T20:05:30.739Z,97008.00
2019-04-05T20:10:40.038Z,96998.00
2019-04-05T20:15:49.167Z,96999.00
2019-04-05T20:20:56.926Z,96997.00
2019-04-05T20:26:03.482Z,96999.00
2019-04-05T20:31:11.557Z,96992.00
2019-04-05T20:36:19.581Z,96998.00
2019-04-05T20:41:27.421Z,96988.00
2019-04-05T20:46:33.491Z,96989.00
2019-04-05T20:51:40.737Z,96996.00
2019-04-05T20:56:49.232Z,97002.00
2019-04-05T21:01:57.230Z,96999.00
2019-04-05T21:07:04.054Z,97002.00
2019-04-05T21:12:11.940Z,97005.00
2019-04-05T21:17:19.585Z,97016.00
2019-04-05T21:22:27.434Z,97009.00
2019-04-05T21:27:33.338Z,97011.00
2019-04-05T21:32:39.704Z,97011.00
2019-04-05T21:37:46.023Z,97028.00
2019-04-05T21:42:52.549Z,97028.00
2019-04-05T21:48:00.790Z,97026.00
2019-04-05T21:53:08.733Z,97023.00
2019-04-05T21:58:15.636Z,97020.00
2019-04-05T22:03:23.513Z,97032.00
2019-04-05T22:08:30.371Z,97028.00
2019-04-05T22:13:38.226Z,97027.00
2019-04-05T22:18:45.158Z,97024.00
2019-04-05T22:23:52.087Z,97024.00
2019-04-05T22:28:58.024Z,97031.00
2019-04-05T22:34:05.716Z,97028.00
2019-04-05T22:39:13.526Z,97039.00
2019-04-05T22:44:19.533Z,97041.00
2019-04-05T23:08:33.482Z,97061.00
2019-04-05T23:13:41.006Z,97070.00
2019-04-05T23:18:49.059Z,97070.00
2019-04-05T23:23:56.728Z,97057.00
2019-04-05T23:29:04.599Z,97064.00
2019-04-05T23:34:11.374Z,97061.00
2019-04-05T23:39:19.278Z,97057.00
2019-04-05T23:44:26.288Z,97052.00
2019-04-05T23:49:32.408Z,97058.00
2019-04-05T23:54:39.346Z,97070.00
2019-04-05T23:59:47.469Z,97066.00
